Terminal Aerodrome Forecast
Issued by NWS

Home | Current Version | Previous Version | Text Only | Print | Product List | Glossary On
Versions: 1 2 3 4 5 6 7 8 9 10 11 12 13 14 15 16 17 18 19 20 21
000
FTUS43 KDTX 171743
TAFYIP
TAF
KYIP 171743Z 1718/1818 16013KT P6SM SCT030 BKN150
      TEMPO 1718/1722 BKN030 OVC150
     FM180400 18013KT 6SM -SHRA OVC045 WS017/22040KT
     FM180700 20010KT 4SM RA BR OVC008 PROB30 1807/1810 2SM TSRA BR
      OVC008CB
     FM181300 VRB03KT 2SM -RA BR OVC004=

USA.gov is the U.S. government's official web portal to all federal, state and local government web resources and services.